Time;durP1;ratioP1;P1;durP2;ratioP2;P2;SDS_P1;SDS_P2;PMS_P1;PMS_P2;Temp;Humidity;BMP_temperature;BMP_pressure;BME280_temperature;BME280_humidity;BME280_pressure;Samples;Min_cycle;Max_cycle;Signal;HPM_P1;HPM_P2
2022/03/12 00:01:35;;;;;;;36.10;9.27;;;;;;;-3.54;57.36;100456.91;4363730;32;20091;-77
2022/03/12 00:04:07;;;;;;;26.75;10.07;;;;;;;-3.61;58.22;100444.34;4371535;32;20047;-77
2022/03/12 00:06:34;;;;;;;29.40;10.73;;;;;;;-3.68;58.54;100450.09;4370816;32;20083;-77
2022/03/12 00:09:00;;;;;;;22.50;8.07;;;;;;;-3.70;59.14;100451.16;4363186;32;20061;-80
2022/03/12 00:11:30;;;;;;;32.53;9.13;;;;;;;-3.74;59.93;100452.38;4368344;32;20102;-78
2022/03/12 00:14:00;;;;;;;29.58;8.65;;;;;;;-3.74;60.49;100447.13;4363179;32;20061;-77
2022/03/12 00:16:26;;;;;;;30.42;10.90;;;;;;;-4.11;60.86;100395.63;4369645;32;20047;-77
2022/03/12 00:18:55;;;;;;;24.63;10.07;;;;;;;-4.10;61.61;100401.72;4367165;32;20133;-77
2022/03/12 00:21:28;;;;;;;28.17;11.07;;;;;;;-3.79;62.20;100458.03;4371896;32;20043;-78
2022/03/12 00:24:00;;;;;;;29.37;10.35;;;;;;;-4.15;62.76;100394.19;4385465;32;20055;-77
2022/03/12 00:26:29;;;;;;;33.00;8.57;;;;;;;-3.91;63.49;100454.56;4368278;32;20027;-77
2022/03/12 00:28:56;;;;;;;32.13;10.48;;;;;;;-3.99;63.82;100432.44;4367100;32;20062;-78
2022/03/12 00:31:23;;;;;;;24.52;8.88;;;;;;;-4.28;64.52;100385.59;4344093;32;20044;-74
2022/03/12 00:33:51;;;;;;;29.30;9.77;;;;;;;-3.95;65.25;100436.50;4364189;32;20039;-77
2022/03/12 00:36:18;;;;;;;29.77;10.32;;;;;;;-4.03;65.70;100435.31;4361895;32;20058;-77
2022/03/12 00:38:45;;;;;;;26.83;10.90;;;;;;;-4.39;66.11;100381.16;4353663;32;20040;-77
2022/03/12 00:41:13;;;;;;;33.42;10.73;;;;;;;-4.44;66.48;100373.63;4353875;32;20068;-77
2022/03/12 00:43:39;;;;;;;25.92;9.25;;;;;;;-4.06;67.00;100440.81;4367029;32;20051;-77
2022/03/12 00:46:06;;;;;;;29.58;8.80;;;;;;;-4.04;67.53;100443.31;4368986;32;20059;-77
2022/03/12 00:48:34;;;;;;;30.52;9.55;;;;;;;-4.13;68.19;100442.25;4372029;32;20036;-76
2022/03/12 00:51:01;;;;;;;26.50;10.30;;;;;;;-4.11;68.36;100440.34;4356951;32;20040;-80
2022/03/12 00:53:28;;;;;;;35.05;11.55;;;;;;;-4.21;69.90;100442.03;4330288;32;20047;-77
2022/03/12 00:55:54;;;;;;;31.75;11.30;;;;;;;-4.17;70.23;100447.88;4360547;32;20467;-77
2022/03/12 00:58:21;;;;;;;32.33;10.00;;;;;;;-4.31;70.33;100427.91;4351430;32;20036;-76
2022/03/12 01:00:48;;;;;;;22.62;8.77;;;;;;;-4.53;70.61;100392.78;4354203;32;20054;-76
2022/03/12 01:03:15;;;;;;;29.87;10.60;;;;;;;-4.27;71.21;100437.25;4360057;32;20341;-77
2022/03/12 01:05:48;;;;;;;26.33;9.48;;;;;;;-4.53;72.10;100390.16;4364879;32;20077;-76
2022/03/12 01:08:15;;;;;;;30.85;10.63;;;;;;;-4.61;72.54;100392.50;4369561;32;20070;-76
2022/03/12 01:10:43;;;;;;;22.92;8.68;;;;;;;-4.43;72.91;100442.84;4354983;32;20057;-77
2022/03/12 01:13:13;;;;;;;26.70;9.90;;;;;;;-4.73;72.97;100378.53;4379771;32;20481;-77
2022/03/12 01:15:41;;;;;;;31.77;9.40;;;;;;;-4.46;73.61;100438.66;4379422;32;20047;-76
2022/03/12 01:18:13;;;;;;;34.75;10.45;;;;;;;-4.34;73.70;100457.06;4385337;32;20058;-77
2022/03/12 01:20:40;;;;;;;26.52;10.07;;;;;;;-4.40;73.42;100456.59;4383913;32;20065;-77
2022/03/12 01:23:08;;;;;;;27.37;9.73;;;;;;;-4.36;73.76;100448.47;4358764;32;20049;-78
2022/03/12 01:25:35;;;;;;;32.38;9.07;;;;;;;-5.43;73.77;100274.44;4366372;32;20044;-77
2022/03/12 01:28:02;;;;;;;23.27;8.50;;;;;;;-4.38;74.45;100454.69;4369831;32;20109;-76
2022/03/12 01:30:31;;;;;;;33.72;10.70;;;;;;;-4.69;74.15;100405.41;4370103;32;20030;-76
2022/03/12 01:32:58;;;;;;;33.70;11.95;;;;;;;-4.35;73.77;100450.97;4370094;32;20065;-76
2022/03/12 01:35:25;;;;;;;25.98;7.97;;;;;;;-4.38;74.39;100449.41;4368048;32;20058;-76
2022/03/12 01:37:51;;;;;;;28.23;9.48;;;;;;;-4.35;73.47;100450.97;4369871;32;20077;-76
2022/03/12 01:40:17;;;;;;;24.75;9.20;;;;;;;-4.37;73.65;100447.66;4374286;32;20075;-78
2022/03/12 01:42:44;;;;;;;27.85;8.93;;;;;;;-4.49;73.27;100425.75;4383871;32;20058;-77
2022/03/12 01:45:13;;;;;;;32.95;11.15;;;;;;;-4.48;73.37;100427.44;4365405;32;20051;-77
2022/03/12 01:47:43;;;;;;;24.73;10.50;;;;;;;-4.38;73.20;100441.53;4352259;32;20035;-78
2022/03/12 01:50:10;;;;;;;28.02;9.02;;;;;;;-4.45;73.44;100434.22;4370241;32;20050;-77
2022/03/12 01:52:36;;;;;;;28.25;9.35;;;;;;;-4.47;74.17;100426.44;4369411;32;20105;-76
2022/03/12 01:55:05;;;;;;;27.80;9.65;;;;;;;-4.34;73.34;100438.66;4369391;32;20069;-76
2022/03/12 01:57:32;;;;;;;23.75;9.43;;;;;;;-4.70;73.24;100377.47;4359321;32;20053;-79
2022/03/12 01:59:58;;;;;;;28.90;9.43;;;;;;;-4.44;73.92;100435.91;4370183;32;20482;-77
2022/03/12 02:02:25;;;;;;;38.05;10.85;;;;;;;-5.04;73.78;100328.34;4384491;32;20051;-77
2022/03/12 02:04:52;;;;;;;36.17;9.93;;;;;;;-4.58;74.13;100421.19;4383096;32;20053;-77
2022/03/12 02:07:21;;;;;;;29.45;9.60;;;;;;;-4.81;74.51;100376.47;4362023;32;20183;-80
2022/03/12 02:09:49;;;;;;;32.22;9.65;;;;;;;-4.52;74.78;100425.97;4377290;32;20047;-77
2022/03/12 02:12:16;;;;;;;27.85;9.52;;;;;;;-4.51;74.87;100421.56;4368977;32;20387;-77
2022/03/12 02:14:42;;;;;;;30.77;10.18;;;;;;;-4.83;75.25;100367.88;4370136;32;20467;-77
2022/03/12 02:17:10;;;;;;;30.62;9.75;;;;;;;-4.57;75.40;100425.50;4368155;32;20470;-79
2022/03/12 02:19:39;;;;;;;26.98;9.85;;;;;;;-4.57;75.88;100422.88;4368172;32;20364;-77
2022/03/12 02:22:07;;;;;;;31.80;9.25;;;;;;;-4.96;76.44;100361.91;4368425;32;20383;-77
2022/03/12 02:24:35;;;;;;;36.75;10.63;;;;;;;-4.93;76.70;100356.41;4370050;32;20061;-77
2022/03/12 02:27:04;;;;;;;38.03;11.43;;;;;;;-4.59;76.94;100411.66;4362960;32;20067;-77
2022/03/12 02:29:31;;;;;;;30.33;10.43;;;;;;;-4.68;76.97;100412.34;4362220;32;20088;-80
2022/03/12 02:32:01;;;;;;;34.10;11.52;;;;;;;-4.69;77.12;100402.78;4369299;32;20397;-77
2022/03/12 02:34:36;;;;;;;29.00;8.85;;;;;;;-4.71;77.55;100407.31;4369684;32;20412;-77
2022/03/12 02:37:02;;;;;;;26.12;10.00;;;;;;;-4.72;78.02;100401.25;4377991;32;20086;-76
2022/03/12 02:39:30;;;;;;;37.80;9.98;;;;;;;-5.06;78.02;100339.91;4374445;32;20027;-79
2022/03/12 02:42:00;;;;;;;40.05;10.13;;;;;;;-5.02;78.54;100349.25;4371169;32;20046;-76
2022/03/12 02:44:27;;;;;;;37.25;12.20;;;;;;;-4.75;79.56;100385.72;4359354;32;20365;-77
2022/03/12 02:47:11;;;;;;;30.45;10.20;;;;;;;-4.78;79.19;100394.66;4370272;32;20468;-78
2022/03/12 02:49:45;;;;;;;49.63;12.65;;;;;;;-5.05;79.41;100341.59;4372448;32;20072;-77
2022/03/12 02:52:13;;;;;;;32.53;9.80;;;;;;;-4.82;79.66;100390.59;4382217;32;20039;-77
2022/03/12 02:54:42;;;;;;;31.83;9.40;;;;;;;-4.85;80.05;100380.31;4387538;32;20388;-77
2022/03/12 02:57:09;;;;;;;34.55;11.45;;;;;;;-4.86;80.58;100389.16;4368215;32;20073;-77
2022/03/12 02:59:42;;;;;;;38.20;12.18;;;;;;;-4.85;80.70;100390.81;4361280;32;20507;-77
2022/03/12 03:02:11;;;;;;;32.75;8.85;;;;;;;-4.90;80.56;100377.19;4383033;32;20046;-76
2022/03/12 03:04:39;;;;;;;37.67;10.95;;;;;;;-4.81;80.81;100384.38;4382364;32;20057;-76
2022/03/12 03:07:08;;;;;;;31.17;12.32;;;;;;;-4.90;80.74;100373.72;4370056;32;20105;-79
2022/03/12 03:09:35;;;;;;;26.12;9.18;;;;;;;-4.82;80.51;100385.34;4371850;32;20439;-76
2022/03/12 03:12:03;;;;;;;33.33;11.10;;;;;;;-5.18;81.07;100329.38;4365302;32;20034;-76
2022/03/12 03:14:31;;;;;;;37.28;11.90;;;;;;;-4.81;80.60;100392.25;4370741;32;20047;-76
2022/03/12 03:17:01;;;;;;;26.95;8.18;;;;;;;-5.17;82.07;100333.69;4370957;32;20047;-77
2022/03/12 03:19:28;;;;;;;29.58;9.95;;;;;;;-4.86;81.42;100385.69;4357496;32;20072;-76
2022/03/12 03:21:58;;;;;;;31.73;10.90;;;;;;;-4.92;81.11;100364.16;4371491;32;20055;-77
2022/03/12 03:24:26;;;;;;;29.23;9.80;;;;;;;-5.03;81.39;100347.56;4387162;32;20222;-75
2022/03/12 03:26:57;;;;;;;32.83;10.50;;;;;;;-4.94;80.87;100371.34;4373243;32;20031;-75
2022/03/12 03:29:26;;;;;;;28.63;9.20;;;;;;;-5.22;80.52;100322.69;4374790;32;20080;-77
2022/03/12 03:31:53;;;;;;;28.12;8.73;;;;;;;-4.83;79.94;100378.41;4370319;32;20144;-76
2022/03/12 03:34:21;;;;;;;31.50;9.50;;;;;;;-4.88;79.56;100359.53;4367459;32;20061;-77
2022/03/12 03:36:48;;;;;;;26.65;8.55;;;;;;;-5.11;79.37;100317.44;4363984;32;20073;-76
2022/03/12 03:39:15;;;;;;;39.67;11.77;;;;;;;-4.68;79.13;100378.19;4355366;32;20075;-76
2022/03/12 03:41:42;;;;;;;37.35;11.12;;;;;;;-4.81;79.17;100368.59;4357123;32;20088;-76
2022/03/12 03:44:10;;;;;;;25.85;8.73;;;;;;;-4.86;79.22;100362.87;4368200;32;20455;-76
2022/03/12 03:46:37;;;;;;;33.97;9.13;;;;;;;-5.04;78.30;100327.47;4370149;32;20433;-75
2022/03/12 03:49:04;;;;;;;25.23;8.90;;;;;;;-5.06;77.89;100313.62;4369003;32;20036;-79
2022/03/12 03:51:37;;;;;;;27.75;10.23;;;;;;;-4.70;77.79;100380.09;4357895;32;20203;-77
2022/03/12 03:54:08;;;;;;;27.98;9.88;;;;;;;-5.30;78.23;100276.03;4365610;32;20059;-77
2022/03/12 03:56:37;;;;;;;21.40;8.55;;;;;;;-4.98;78.44;100329.66;4370065;32;20090;-77
2022/03/12 03:59:04;;;;;;;23.70;8.45;;;;;;;-4.72;79.01;100368.84;4367918;32;20044;-78
2022/03/12 04:01:31;;;;;;;33.67;10.07;;;;;;;-4.87;78.96;100352.47;4385958;32;20110;-77
2022/03/12 04:03:58;;;;;;;24.05;8.75;;;;;;;-4.77;80.14;100377.94;4382766;32;20075;-77
2022/03/12 04:06:25;;;;;;;19.17;7.28;;;;;;;-4.76;80.13;100376.97;4374760;32;20108;-75
2022/03/12 04:08:53;;;;;;;27.08;7.85;;;;;;;-4.84;80.36;100375.87;4341605;32;20040;-75
2022/03/12 04:11:23;;;;;;;35.17;9.25;;;;;;;-5.32;80.89;100298.09;4353102;32;20039;-75
2022/03/12 04:13:52;;;;;;;36.30;9.48;;;;;;;-4.83;80.63;100373.16;4356296;32;20062;-75
2022/03/12 04:16:20;;;;;;;21.35;8.05;;;;;;;-4.88;81.55;100369.19;4366241;32;20039;-76
2022/03/12 04:18:49;;;;;;;40.47;10.70;;;;;;;-5.26;81.76;100323.88;4369680;32;20039;-77
2022/03/12 04:21:17;;;;;;;27.33;11.10;;;;;;;-4.85;82.51;100375.06;4376151;32;20094;-75
2022/03/12 04:23:45;;;;;;;40.25;11.18;;;;;;;-4.92;82.86;100372.03;4370252;32;20427;-75
2022/03/12 04:26:13;;;;;;;31.83;9.88;;;;;;;-4.95;83.50;100380.16;4369580;32;20060;-75
2022/03/12 04:28:40;;;;;;;29.98;10.25;;;;;;;-5.30;84.39;100320.66;4356545;32;20028;-77
2022/03/12 04:31:08;;;;;;;31.85;10.32;;;;;;;-5.36;85.19;100317.63;4355601;32;20068;-77
2022/03/12 04:33:38;;;;;;;33.67;12.35;;;;;;;-5.01;85.65;100370.13;4370051;32;20192;-77
2022/03/12 04:36:05;;;;;;;27.73;11.02;;;;;;;-5.53;86.41;100290.88;4365584;32;20073;-77
2022/03/12 04:38:31;;;;;;;23.67;7.68;;;;;;;-5.07;87.16;100369.75;4369990;32;20067;-77
2022/03/12 04:40:58;;;;;;;30.55;10.00;;;;;;;-5.06;86.97;100371.44;4376940;32;20046;-77
2022/03/12 04:43:26;;;;;;;30.33;10.02;;;;;;;-5.04;87.41;100372.13;4372451;32;20086;-77
2022/03/12 04:45:52;;;;;;;28.55;9.23;;;;;;;-5.49;87.66;100318.56;4367666;32;20073;-77
2022/03/12 04:48:21;;;;;;;40.67;11.02;;;;;;;-5.10;88.40;100370.81;4384933;32;20035;-77
2022/03/12 04:50:49;;;;;;;34.80;11.18;;;;;;;-5.55;88.99;100308.53;4358413;32;20056;-79
2022/03/12 04:53:15;;;;;;;30.65;10.48;;;;;;;-5.16;89.31;100371.28;4356672;32;20074;-78
2022/03/12 04:55:44;;;;;;;35.70;11.35;;;;;;;-5.20;89.92;100375.09;4355828;32;20057;-77
2022/03/12 04:58:12;;;;;;;37.67;9.85;;;;;;;-5.33;90.56;100360.25;4348441;32;20036;-76
2022/03/12 05:00:41;;;;;;;30.90;8.98;;;;;;;-5.58;90.82;100316.62;4363055;32;20376;-77
2022/03/12 05:03:19;;;;;;;30.23;9.48;;;;;;;-5.27;91.13;100372.09;4376473;32;20043;-77
2022/03/12 05:05:51;;;;;;;30.77;9.82;;;;;;;-5.35;91.46;100350.81;4381706;32;20074;-75
2022/03/12 05:08:19;;;;;;;;;;;;;;;-5.65;92.14;100312.78;4384162;32;20035;-76
2022/03/12 05:10:51;;;;;;;38.25;10.57;;;;;;;-5.26;92.70;100370.31;4375982;32;19945;-75
2022/03/12 05:13:24;;;;;;;;;;;;;;;-5.70;93.29;100315.72;4378851;32;20490;-76
2022/03/12 05:15:53;;;;;;;35.90;11.57;;;;;;;-5.33;93.97;100369.91;4370181;32;19965;-77
2022/03/12 05:18:23;;;;;;;31.48;11.20;;;;;;;-5.45;93.69;100344.59;4368826;32;20061;-76
2022/03/12 05:20:50;;;;;;;29.08;8.07;;;;;;;-5.40;94.19;100366.91;4361593;32;20055;-77
2022/03/12 05:23:19;;;;;;;34.00;9.82;;;;;;;-5.40;94.67;100352.97;4341976;32;20357;-77
2022/03/12 05:25:47;;;;;;;27.87;9.02;;;;;;;-5.50;95.21;100348.38;4354180;32;20118;-78
2022/03/12 05:28:17;;;;;;;24.05;9.95;;;;;;;-5.42;95.83;100360.13;4365726;32;20044;-75
2022/03/12 05:30:45;;;;;;;37.22;11.25;;;;;;;-5.38;96.27;100366.78;4358218;32;20043;-79
2022/03/12 05:33:13;;;;;;;36.38;9.68;;;;;;;-5.39;96.25;100354.63;4365061;32;20061;-76
2022/03/12 05:35:42;;;;;;;30.17;10.35;;;;;;;-5.39;96.75;100350.22;4356234;32;20112;-76
2022/03/12 05:38:10;;;;;;;33.63;11.23;;;;;;;-5.44;96.91;100356.75;4354913;32;20039;-77
2022/03/12 05:40:39;;;;;;;35.92;8.65;;;;;;;-5.44;97.13;100351.50;4367891;32;20047;-78
2022/03/12 05:43:10;;;;;;;33.97;9.70;;;;;;;-5.71;97.26;100307.97;4344157;32;20788;-82
2022/03/12 05:45:38;;;;;;;27.05;10.30;;;;;;;-5.69;96.93;100311.34;4355270;32;20398;-77
2022/03/12 05:48:09;;;;;;;26.85;10.30;;;;;;;-5.36;96.81;100362.25;4372869;32;20096;-76
2022/03/12 05:50:39;;;;;;;30.23;10.77;;;;;;;-5.22;96.11;100367.31;4377454;32;20079;-78
2022/03/12 05:53:09;;;;;;;38.25;11.25;;;;;;;-5.52;94.96;100297.81;4368573;32;20076;-77
2022/03/12 05:55:39;;;;;;;38.85;9.85;;;;;;;-5.17;94.17;100370.47;4368960;32;20078;-76
2022/03/12 05:58:07;;;;;;;28.62;9.18;;;;;;;-5.41;94.02;100304.03;4370952;32;20422;-76
2022/03/12 06:00:34;;;;;;;34.30;12.10;;;;;;;-5.03;93.88;100368.56;4366787;32;20383;-80
2022/03/12 06:03:05;;;;;;;28.12;10.10;;;;;;;-5.34;92.65;100313.12;4369861;32;20047;-76
2022/03/12 06:05:31;;;;;;;37.55;10.82;;;;;;;-4.90;92.42;100365.84;4366488;32;20566;-76
2022/03/12 06:07:59;;;;;;;23.62;8.70;;;;;;;-5.12;90.60;100315.78;4359650;32;20070;-76
2022/03/12 06:10:28;;;;;;;25.08;9.57;;;;;;;-4.84;89.46;100345.19;4355213;33;20085;-76
2022/03/12 06:12:58;;;;;;;35.75;12.95;;;;;;;-4.72;89.85;100363.59;4365393;32;20059;-76
2022/03/12 06:15:27;;;;;;;28.17;9.10;;;;;;;-4.70;88.39;100356.44;4370478;32;20040;-77
2022/03/12 06:17:54;;;;;;;31.60;8.65;;;;;;;-4.54;88.46;100356.91;4373003;32;20035;-76
2022/03/12 06:20:22;;;;;;;28.27;8.55;;;;;;;-4.49;86.01;100354.75;4376831;32;20413;-77
2022/03/12 06:22:51;;;;;;;25.70;9.38;;;;;;;-4.64;85.21;100311.25;4354211;32;20062;-77
2022/03/12 06:25:23;;;;;;;21.00;8.27;;;;;;;-4.63;83.73;100294.53;4367300;32;20058;-77
2022/03/12 06:27:56;;;;;;;21.30;9.30;;;;;;;-4.25;81.50;100359.88;4376743;32;20047;-76
2022/03/12 06:30:25;;;;;;;23.70;9.25;;;;;;;-4.13;80.97;100355.44;4387040;32;20073;-79
2022/03/12 06:32:55;;;;;;;30.67;10.68;;;;;;;-4.23;79.48;100322.94;4378513;32;20040;-77
2022/03/12 06:35:22;;;;;;;26.45;9.50;;;;;;;-4.32;78.54;100297.38;4376735;32;20061;-78
2022/03/12 06:37:49;;;;;;;27.42;8.55;;;;;;;-3.87;77.42;100355.16;4387972;32;20057;-77
2022/03/12 06:40:18;;;;;;;28.48;9.05;;;;;;;-4.10;76.43;100307.84;4373846;32;20360;-75
2022/03/12 06:42:47;;;;;;;22.13;8.32;;;;;;;-3.80;74.84;100344.97;4383069;32;20039;-74
2022/03/12 06:45:15;;;;;;;20.55;7.37;;;;;;;-3.56;73.30;100344.75;4364731;32;20077;-74
2022/03/12 06:47:46;;;;;;;29.15;8.18;;;;;;;-3.52;73.72;100348.81;4374652;32;20137;-74
2022/03/12 06:50:17;;;;;;;23.50;8.27;;;;;;;-3.75;73.26;100301.53;4372483;32;20376;-73
2022/03/12 06:52:48;;;;;;;24.70;8.00;;;;;;;-3.54;72.15;100316.47;4356557;32;20382;-75
2022/03/12 06:55:21;;;;;;;18.65;8.45;;;;;;;-3.59;71.02;100287.06;4372135;32;20396;-75
2022/03/12 06:57:49;;;;;;;20.08;6.70;;;;;;;-3.22;69.77;100339.31;4365647;32;20043;-75
2022/03/12 07:00:22;;;;;;;24.20;8.05;;;;;;;-3.08;69.33;100336.34;4369010;32;20091;-77
2022/03/12 07:02:48;;;;;;;22.15;8.88;;;;;;;-2.96;67.96;100350.31;4371878;32;20056;-75
2022/03/12 07:05:15;;;;;;;16.15;6.85;;;;;;;-3.25;66.75;100292.19;4369133;32;20031;-74
2022/03/12 07:07:41;;;;;;;14.77;6.65;;;;;;;-2.81;66.74;100353.44;4363287;32;20388;-74
2022/03/12 07:10:10;;;;;;;20.05;7.55;;;;;;;-2.81;66.17;100341.09;4365819;32;20335;-76
2022/03/12 07:12:38;;;;;;;20.70;8.73;;;;;;;-2.64;65.49;100355.47;4369495;32;20069;-73
2022/03/12 07:15:05;;;;;;;19.75;7.32;;;;;;;-2.53;64.80;100361.63;4358522;32;20060;-75
2022/03/12 07:17:32;;;;;;;19.35;7.40;;;;;;;-2.39;65.03;100356.81;4370722;32;20031;-75
2022/03/12 07:19:59;;;;;;;14.27;6.25;;;;;;;-2.37;63.56;100351.41;4356047;32;20084;-77
2022/03/12 07:22:26;;;;;;;19.17;7.32;;;;;;;-2.23;62.72;100350.22;4368413;32;20074;-75
2022/03/12 07:24:53;;;;;;;17.23;6.70;;;;;;;-2.14;62.58;100359.13;4367916;32;20047;-76
2022/03/12 07:27:19;;;;;;;14.52;6.82;;;;;;;-2.05;62.36;100360.97;4369448;32;20081;-75
2022/03/12 07:29:46;;;;;;;19.27;7.47;;;;;;;-2.17;61.60;100319.81;4370237;32;20087;-74
2022/03/12 07:32:13;;;;;;;16.27;7.62;;;;;;;-2.04;61.09;100349.44;4383911;32;20073;-77
2022/03/12 07:34:39;;;;;;;18.27;6.70;;;;;;;-2.24;61.13;100293.94;4374831;32;20039;-74
2022/03/12 07:37:08;;;;;;;22.55;7.03;;;;;;;-2.16;60.51;100316.22;4366990;32;20080;-74
2022/03/12 07:39:35;;;;;;;20.20;7.75;;;;;;;-1.75;60.34;100351.28;4357013;32;20108;-75
2022/03/12 07:42:03;;;;;;;17.25;7.10;;;;;;;-1.95;59.46;100319.56;4356646;32;20044;-75
2022/03/12 07:44:29;;;;;;;13.00;5.87;;;;;;;-1.64;58.88;100364.38;4368452;32;20044;-74
2022/03/12 07:46:58;;;;;;;14.60;6.80;;;;;;;-1.89;58.97;100292.62;4372325;32;20042;-74
2022/03/12 07:49:25;;;;;;;19.98;8.13;;;;;;;-1.78;58.03;100306.69;4387029;32;20038;-75
2022/03/12 07:51:53;;;;;;;15.90;6.35;;;;;;;-1.32;57.72;100357.97;4386663;32;20073;-75
2022/03/12 07:54:20;;;;;;;18.00;6.28;;;;;;;-1.25;57.79;100353.78;4372377;32;20047;-74
2022/03/12 07:56:46;;;;;;;17.45;8.07;;;;;;;-1.46;58.22;100296.62;4355646;32;20042;-74
2022/03/12 07:59:13;;;;;;;15.68;6.90;;;;;;;-1.25;57.46;100340.56;4370568;32;20077;-75
2022/03/12 08:01:40;;;;;;;18.30;7.37;;;;;;;-1.13;57.68;100357.94;4382986;32;20043;-75
2022/03/12 08:04:07;;;;;;;14.80;6.45;;;;;;;-1.02;57.43;100348.19;4377059;32;20036;-73
2022/03/12 08:06:34;;;;;;;17.62;6.87;;;;;;;-1.06;57.13;100317.72;4372206;32;20035;-76
2022/03/12 08:09:01;;;;;;;22.65;7.10;;;;;;;-1.20;56.02;100292.56;4362235;32;20049;-73
2022/03/12 08:11:32;;;;;;;14.15;5.95;;;;;;;-1.11;55.44;100287.25;4379065;32;20095;-75
2022/03/12 08:14:03;;;;;;;20.98;7.43;;;;;;;-0.76;54.40;100333.38;4371226;32;20039;-75
2022/03/12 08:16:32;;;;;;;15.75;7.25;;;;;;;-0.59;54.49;100331.78;4373633;32;20175;-74
2022/03/12 08:19:07;;;;;;;16.95;6.65;;;;;;;-0.57;53.65;100321.87;4368180;32;20031;-74
2022/03/12 08:21:35;;;;;;;13.90;6.07;;;;;;;-0.84;53.96;100283.00;4370671;32;20435;-74
2022/03/12 08:24:03;;;;;;;14.05;6.65;;;;;;;-0.35;53.73;100321.63;4370438;32;20418;-74
2022/03/12 08:26:32;;;;;;;18.45;6.97;;;;;;;-0.40;53.00;100333.50;4369652;32;20052;-74
2022/03/12 08:28:59;;;;;;;15.65;6.53;;;;;;;-0.28;52.92;100309.50;4356786;32;20053;-73
2022/03/12 08:31:27;;;;;;;20.00;7.53;;;;;;;-0.16;51.66;100329.50;4367712;32;20375;-73
2022/03/12 08:33:53;;;;;;;16.33;6.95;;;;;;;-0.43;51.83;100275.59;4357494;32;20307;-75
2022/03/12 08:36:20;;;;;;;18.65;6.45;;;;;;;-0.37;51.48;100264.41;4366441;32;20368;-77
2022/03/12 08:38:49;;;;;;;16.23;6.03;;;;;;;-0.13;51.67;100276.22;4367456;32;20372;-77
2022/03/12 08:41:16;;;;;;;18.10;6.20;;;;;;;0.07;51.15;100270.81;4370461;32;20766;-77
2022/03/12 08:43:43;;;;;;;12.35;6.90;;;;;;;0.54;50.49;100328.84;4369525;32;20459;-77
2022/03/12 08:46:10;;;;;;;18.62;7.93;;;;;;;0.18;49.47;100273.22;4368348;32;20032;-77
2022/03/12 08:48:36;;;;;;;14.95;6.15;;;;;;;0.29;48.88;100275.66;4369447;32;20500;-75
2022/03/12 08:51:03;;;;;;;17.00;6.05;;;;;;;0.63;48.59;100319.97;4377931;32;20047;-76
2022/03/12 08:53:30;;;;;;;18.02;6.90;;;;;;;0.71;47.80;100320.03;4366130;32;20223;-77
2022/03/12 08:56:00;;;;;;;14.93;6.68;;;;;;;0.57;47.82;100296.72;4368856;32;20102;-76
2022/03/12 08:58:28;;;;;;;14.05;5.55;;;;;;;0.55;47.47;100274.84;4370108;32;20079;-76
2022/03/12 09:00:55;;;;;;;16.17;6.20;;;;;;;1.04;46.99;100322.94;4365322;32;20109;-77
2022/03/12 09:03:22;;;;;;;14.52;5.72;;;;;;;0.91;46.67;100277.44;4368712;32;20073;-77
2022/03/12 09:05:50;;;;;;;10.93;5.25;;;;;;;1.27;46.55;100319.75;4370344;32;20043;-77
2022/03/12 09:08:17;;;;;;;17.40;6.57;;;;;;;1.38;46.31;100324.78;4369144;32;20048;-77
2022/03/12 09:10:44;;;;;;;13.18;6.28;;;;;;;1.11;45.65;100309.06;4370536;32;20073;-76
2022/03/12 09:13:15;;;;;;;16.62;6.25;;;;;;;1.26;45.78;100336.66;4366357;32;20065;-76
2022/03/12 09:15:41;;;;;;;24.73;7.43;;;;;;;1.47;46.42;100338.09;4375794;32;20061;-76
2022/03/12 09:18:09;;;;;;;17.20;5.93;;;;;;;1.27;46.53;100317.09;4378667;32;20061;-76
2022/03/12 09:20:47;;;;;;;13.48;6.65;;;;;;;1.61;46.64;100334.84;4372622;32;20468;-78
2022/03/12 09:23:19;;;;;;;13.13;6.05;;;;;;;1.68;46.00;100322.59;4353761;32;20093;-74
2022/03/12 09:25:48;;;;;;;13.93;5.05;;;;;;;1.85;46.09;100330.62;4357203;32;20040;-75
2022/03/12 09:28:17;;;;;;;11.98;5.68;;;;;;;1.50;45.25;100303.25;4352690;32;20371;-74
2022/03/12 09:30:44;;;;;;;22.33;5.80;;;;;;;1.77;44.79;100334.94;4367533;32;20040;-75
2022/03/12 09:33:10;;;;;;;10.85;4.47;;;;;;;1.79;43.97;100335.59;4380085;32;20068;-75
2022/03/12 09:35:37;;;;;;;19.15;4.37;;;;;;;1.92;43.99;100321.03;4383755;32;20035;-75
2022/03/12 09:38:03;;;;;;;18.75;6.82;;;;;;;2.08;43.29;100331.69;4366373;32;20061;-75
2022/03/12 09:40:30;;;;;;;10.82;5.03;;;;;;;2.10;41.87;100334.19;4368698;32;20040;-76
2022/03/12 09:42:57;;;;;;;11.68;5.25;;;;;;;2.02;41.10;100311.06;4368961;32;20076;-76
2022/03/12 09:45:25;;;;;;;19.35;6.45;;;;;;;2.28;40.67;100315.44;4361074;32;20357;-76
2022/03/12 09:47:52;;;;;;;22.05;5.82;;;;;;;2.11;40.17;100304.78;4371933;32;20385;-74
2022/03/12 09:50:19;;;;;;;24.00;7.57;;;;;;;2.32;39.56;100311.47;4370620;32;20040;-76
2022/03/12 09:52:46;;;;;;;13.98;6.05;;;;;;;2.33;40.32;100297.16;4362636;32;20039;-77
2022/03/12 09:55:13;;;;;;;16.45;5.55;;;;;;;2.47;40.89;100287.72;4360084;32;20166;-76
2022/03/12 09:57:40;;;;;;;16.17;5.57;;;;;;;2.50;40.22;100312.13;4344514;32;20054;-77
2022/03/12 10:00:08;;;;;;;14.25;5.60;;;;;;;2.57;39.38;100300.84;4365550;32;20054;-77
2022/03/12 10:02:39;;;;;;;15.93;5.00;;;;;;;2.76;39.81;100297.87;4361723;32;20055;-74
2022/03/12 10:05:06;;;;;;;7.97;3.97;;;;;;;2.98;39.55;100291.00;4364231;32;20109;-77
2022/03/12 10:07:32;;;;;;;10.40;4.82;;;;;;;3.00;39.00;100282.84;4363023;32;20203;-74
2022/03/12 10:10:00;;;;;;;10.57;5.15;;;;;;;2.67;37.85;100243.84;4360487;32;20062;-74
2022/03/12 10:12:26;;;;;;;12.60;5.72;;;;;;;2.86;37.07;100295.84;4374278;32;20095;-75
2022/03/12 10:14:52;;;;;;;16.73;5.18;;;;;;;2.94;37.32;100296.84;4364326;32;20036;-77
2022/03/12 10:17:19;;;;;;;14.15;5.10;;;;;;;3.18;37.37;100291.47;4366333;32;20065;-75
2022/03/12 10:19:47;;;;;;;10.30;4.57;;;;;;;3.05;37.29;100264.56;4358906;32;20056;-74
2022/03/12 10:22:14;;;;;;;10.02;4.95;;;;;;;3.24;36.43;100285.44;4362206;32;20400;-74
2022/03/12 10:24:41;;;;;;;9.07;4.50;;;;;;;3.39;36.60;100282.06;4363265;32;20047;-75
2022/03/12 10:27:08;;;;;;;14.68;4.07;;;;;;;3.05;34.38;100277.87;4359107;32;20388;-77
2022/03/12 10:29:36;;;;;;;10.60;4.53;;;;;;;3.37;35.52;100276.09;4364156;32;20089;-76
2022/03/12 10:32:28;;;;;;;8.73;3.67;;;;;;;3.44;35.31;100269.06;4346704;32;20065;-75
2022/03/12 10:35:01;;;;;;;10.52;4.22;;;;;;;3.72;35.68;100271.25;4353433;32;20100;-73
2022/03/12 10:37:30;;;;;;;10.95;4.68;;;;;;;3.67;34.94;100245.19;4344957;32;20466;-73
2022/03/12 10:40:03;;;;;;;13.93;4.97;;;;;;;3.12;34.19;100201.66;4368213;32;20077;-73
2022/03/12 10:42:31;;;;;;;12.30;4.57;;;;;;;3.66;35.31;100259.47;4371829;32;20384;-74
2022/03/12 10:45:10;;;;;;;11.88;4.82;;;;;;;3.41;34.92;100224.16;4359609;32;20454;-74
2022/03/12 10:47:42;;;;;;;8.07;4.05;;;;;;;3.94;34.75;100270.50;4356949;32;20429;-74
2022/03/12 10:50:18;;;;;;;;;;;;;;;4.00;34.69;100269.78;4367320;32;20170;-74
2022/03/12 10:52:49;;;;;;;10.02;4.28;;;;;;;3.94;34.98;100267.84;4352754;32;20333;-73
2022/03/12 10:55:18;;;;;;;18.42;5.50;;;;;;;4.40;36.03;100274.16;4352984;32;20491;-72
2022/03/12 10:58:27;;;;;;;17.40;5.18;;;;;;;4.30;35.69;100264.56;4357577;32;20083;-74
2022/03/12 11:01:02;;;;;;;12.82;4.55;;;;;;;4.39;35.31;100252.00;4360306;32;20323;-71
2022/03/12 11:03:31;;;;;;;12.75;4.82;;;;;;;4.50;35.30;100216.06;4370570;32;20031;-73
2022/03/12 11:06:00;;;;;;;10.48;4.68;;;;;;;4.55;35.24;100256.38;4367270;32;20048;-74
2022/03/12 11:08:28;;;;;;;9.30;4.43;;;;;;;4.64;34.81;100263.31;4369809;32;20079;-73
2022/03/12 11:10:59;;;;;;;10.75;4.35;;;;;;;4.63;34.55;100220.81;4371819;32;20423;-73
2022/03/12 11:13:31;;;;;;;10.68;4.57;;;;;;;5.28;34.69;100267.31;4366615;32;20113;-73
2022/03/12 11:16:09;;;;;;;7.28;3.53;;;;;;;5.29;33.15;100258.28;4346795;32;20056;-74
2022/03/12 11:18:36;;;;;;;9.13;4.72;;;;;;;5.34;32.54;100263.91;4340277;33;20079;-73
2022/03/12 11:21:02;;;;;;;8.55;4.40;;;;;;;5.20;32.27;100248.72;4332843;33;20031;-73
2022/03/12 11:23:32;;;;;;;9.30;3.67;;;;;;;5.05;31.72;100144.59;4348085;32;20044;-73